sensor_id;sensor_type;location;lat;lon;timestamp;P1;durP1;ratioP1;P2;durP2;ratioP2
78312;SDS011;67568;47.438;21.408;2023-12-22T00:01:22;3.25;;;2.15;;
78312;SDS011;67568;47.438;21.408;2023-12-22T00:03:49;4.43;;;2.50;;
78312;SDS011;67568;47.438;21.408;2023-12-22T00:06:16;3.10;;;1.52;;
78312;SDS011;67568;47.438;21.408;2023-12-22T00:08:43;3.17;;;1.52;;
78312;SDS011;67568;47.438;21.408;2023-12-22T00:11:10;7.32;;;2.90;;
78312;SDS011;67568;47.438;21.408;2023-12-22T00:13:36;2.83;;;2.00;;
78312;SDS011;67568;47.438;21.408;2023-12-22T00:16:03;3.13;;;1.30;;
78312;SDS011;67568;47.438;21.408;2023-12-22T00:18:30;4.25;;;2.25;;
78312;SDS011;67568;47.438;21.408;2023-12-22T00:20:57;4.75;;;2.15;;
78312;SDS011;67568;47.438;21.408;2023-12-22T00:23:25;2.75;;;1.63;;
78312;SDS011;67568;47.438;21.408;2023-12-22T00:25:51;4.15;;;2.10;;
78312;SDS011;67568;47.438;21.408;2023-12-22T00:28:18;3.37;;;1.47;;
78312;SDS011;67568;47.438;21.408;2023-12-22T00:30:45;4.38;;;1.60;;
78312;SDS011;67568;47.438;21.408;2023-12-22T00:33:12;6.03;;;2.67;;
78312;SDS011;67568;47.438;21.408;2023-12-22T00:35:39;2.78;;;1.58;;
78312;SDS011;67568;47.438;21.408;2023-12-22T00:38:08;3.70;;;2.08;;
78312;SDS011;67568;47.438;21.408;2023-12-22T00:40:35;5.13;;;2.97;;
78312;SDS011;67568;47.438;21.408;2023-12-22T00:43:09;4.22;;;2.03;;
78312;SDS011;67568;47.438;21.408;2023-12-22T00:45:36;3.95;;;1.95;;
78312;SDS011;67568;47.438;21.408;2023-12-22T00:48:04;3.60;;;2.15;;
78312;SDS011;67568;47.438;21.408;2023-12-22T00:50:31;3.60;;;1.15;;
78312;SDS011;67568;47.438;21.408;2023-12-22T00:53:04;3.13;;;1.57;;
78312;SDS011;67568;47.438;21.408;2023-12-22T00:55:31;3.63;;;2.03;;
78312;SDS011;67568;47.438;21.408;2023-12-22T00:57:58;5.15;;;2.92;;
78312;SDS011;67568;47.438;21.408;2023-12-22T01:00:26;4.47;;;2.28;;
78312;SDS011;67568;47.438;21.408;2023-12-22T01:02:56;6.88;;;2.10;;
78312;SDS011;67568;47.438;21.408;2023-12-22T01:05:23;2.53;;;1.42;;
78312;SDS011;67568;47.438;21.408;2023-12-22T01:07:49;2.30;;;1.30;;
78312;SDS011;67568;47.438;21.408;2023-12-22T01:10:17;2.55;;;1.20;;
78312;SDS011;67568;47.438;21.408;2023-12-22T01:12:43;6.43;;;2.33;;
78312;SDS011;67568;47.438;21.408;2023-12-22T01:15:10;3.72;;;1.50;;
78312;SDS011;67568;47.438;21.408;2023-12-22T01:17:37;9.50;;;1.83;;
78312;SDS011;67568;47.438;21.408;2023-12-22T01:20:04;3.67;;;2.13;;
78312;SDS011;67568;47.438;21.408;2023-12-22T01:22:31;6.07;;;1.98;;
78312;SDS011;67568;47.438;21.408;2023-12-22T01:24:59;4.03;;;1.75;;
78312;SDS011;67568;47.438;21.408;2023-12-22T01:27:26;4.18;;;2.22;;
78312;SDS011;67568;47.438;21.408;2023-12-22T01:29:53;3.83;;;2.20;;
78312;SDS011;67568;47.438;21.408;2023-12-22T01:32:19;3.67;;;1.35;;
78312;SDS011;67568;47.438;21.408;2023-12-22T01:34:46;3.95;;;1.65;;
78312;SDS011;67568;47.438;21.408;2023-12-22T01:37:13;3.08;;;1.42;;
78312;SDS011;67568;47.438;21.408;2023-12-22T01:39:40;3.67;;;2.17;;
78312;SDS011;67568;47.438;21.408;2023-12-22T01:42:09;3.33;;;1.87;;
78312;SDS011;67568;47.438;21.408;2023-12-22T01:44:39;4.15;;;2.03;;
78312;SDS011;67568;47.438;21.408;2023-12-22T01:47:06;3.50;;;2.00;;
78312;SDS011;67568;47.438;21.408;2023-12-22T01:49:32;3.80;;;1.83;;
78312;SDS011;67568;47.438;21.408;2023-12-22T01:51:59;4.78;;;2.15;;
78312;SDS011;67568;47.438;21.408;2023-12-22T01:54:29;4.35;;;2.20;;
78312;SDS011;67568;47.438;21.408;2023-12-22T01:56:56;7.72;;;1.70;;
78312;SDS011;67568;47.438;21.408;2023-12-22T01:59:23;2.65;;;1.45;;
78312;SDS011;67568;47.438;21.408;2023-12-22T02:01:50;4.18;;;1.80;;
78312;SDS011;67568;47.438;21.408;2023-12-22T02:04:21;4.97;;;2.33;;
78312;SDS011;67568;47.438;21.408;2023-12-22T02:06:52;4.10;;;2.53;;
78312;SDS011;67568;47.438;21.408;2023-12-22T02:09:22;4.93;;;2.33;;
78312;SDS011;67568;47.438;21.408;2023-12-22T02:11:51;3.47;;;2.28;;
78312;SDS011;67568;47.438;21.408;2023-12-22T02:14:18;5.28;;;2.03;;
78312;SDS011;67568;47.438;21.408;2023-12-22T02:16:46;3.85;;;2.15;;
78312;SDS011;67568;47.438;21.408;2023-12-22T02:19:22;6.37;;;2.53;;
78312;SDS011;67568;47.438;21.408;2023-12-22T02:22:06;3.53;;;1.83;;
78312;SDS011;67568;47.438;21.408;2023-12-22T02:24:38;3.58;;;2.00;;
78312;SDS011;67568;47.438;21.408;2023-12-22T02:27:14;3.25;;;1.92;;
78312;SDS011;67568;47.438;21.408;2023-12-22T02:29:57;3.92;;;1.92;;
78312;SDS011;67568;47.438;21.408;2023-12-22T02:32:45;3.25;;;1.58;;
78312;SDS011;67568;47.438;21.408;2023-12-22T02:35:16;2.78;;;1.85;;
78312;SDS011;67568;47.438;21.408;2023-12-22T02:37:49;3.50;;;2.05;;
78312;SDS011;67568;47.438;21.408;2023-12-22T02:40:17;5.25;;;2.25;;
78312;SDS011;67568;47.438;21.408;2023-12-22T02:42:45;6.20;;;3.15;;
78312;SDS011;67568;47.438;21.408;2023-12-22T02:45:15;2.92;;;1.77;;
78312;SDS011;67568;47.438;21.408;2023-12-22T02:47:43;3.85;;;2.00;;
78312;SDS011;67568;47.438;21.408;2023-12-22T02:50:14;2.40;;;1.45;;
78312;SDS011;67568;47.438;21.408;2023-12-22T02:52:42;3.60;;;1.25;;
78312;SDS011;67568;47.438;21.408;2023-12-22T02:55:09;2.30;;;1.50;;
78312;SDS011;67568;47.438;21.408;2023-12-22T02:57:38;3.83;;;1.42;;
78312;SDS011;67568;47.438;21.408;2023-12-22T03:00:05;3.70;;;1.98;;
78312;SDS011;67568;47.438;21.408;2023-12-22T03:02:32;2.92;;;1.58;;
78312;SDS011;67568;47.438;21.408;2023-12-22T03:05:03;2.55;;;1.75;;
78312;SDS011;67568;47.438;21.408;2023-12-22T03:07:35;3.13;;;1.58;;
78312;SDS011;67568;47.438;21.408;2023-12-22T03:10:01;3.15;;;1.70;;
78312;SDS011;67568;47.438;21.408;2023-12-22T03:12:28;4.95;;;3.13;;
78312;SDS011;67568;47.438;21.408;2023-12-22T03:14:55;4.22;;;2.20;;
78312;SDS011;67568;47.438;21.408;2023-12-22T03:17:25;4.30;;;2.15;;
78312;SDS011;67568;47.438;21.408;2023-12-22T03:19:52;2.58;;;1.90;;
78312;SDS011;67568;47.438;21.408;2023-12-22T03:22:19;4.22;;;2.35;;
78312;SDS011;67568;47.438;21.408;2023-12-22T03:24:46;3.75;;;2.10;;
78312;SDS011;67568;47.438;21.408;2023-12-22T03:27:16;6.22;;;2.50;;
78312;SDS011;67568;47.438;21.408;2023-12-22T03:29:45;3.97;;;1.65;;
78312;SDS011;67568;47.438;21.408;2023-12-22T03:32:12;2.58;;;1.58;;
78312;SDS011;67568;47.438;21.408;2023-12-22T03:34:39;7.00;;;2.90;;
78312;SDS011;67568;47.438;21.408;2023-12-22T03:37:06;2.47;;;1.50;;
78312;SDS011;67568;47.438;21.408;2023-12-22T03:39:32;2.72;;;1.50;;
78312;SDS011;67568;47.438;21.408;2023-12-22T03:41:59;4.38;;;2.40;;
78312;SDS011;67568;47.438;21.408;2023-12-22T03:44:28;2.85;;;1.27;;
78312;SDS011;67568;47.438;21.408;2023-12-22T03:46:55;3.53;;;1.30;;
78312;SDS011;67568;47.438;21.408;2023-12-22T03:49:21;3.20;;;1.63;;
78312;SDS011;67568;47.438;21.408;2023-12-22T03:51:58;2.00;;;1.15;;
78312;SDS011;67568;47.438;21.408;2023-12-22T03:54:25;2.03;;;0.90;;
78312;SDS011;67568;47.438;21.408;2023-12-22T03:56:52;3.17;;;1.38;;
78312;SDS011;67568;47.438;21.408;2023-12-22T03:59:19;1.60;;;1.05;;
78312;SDS011;67568;47.438;21.408;2023-12-22T04:01:52;3.28;;;1.58;;
78312;SDS011;67568;47.438;21.408;2023-12-22T04:04:19;2.05;;;0.98;;
78312;SDS011;67568;47.438;21.408;2023-12-22T04:06:49;4.25;;;1.90;;
78312;SDS011;67568;47.438;21.408;2023-12-22T04:09:19;2.65;;;1.33;;
78312;SDS011;67568;47.438;21.408;2023-12-22T04:11:45;3.10;;;1.48;;
78312;SDS011;67568;47.438;21.408;2023-12-22T04:14:12;4.18;;;1.85;;
78312;SDS011;67568;47.438;21.408;2023-12-22T04:16:42;2.30;;;1.05;;
78312;SDS011;67568;47.438;21.408;2023-12-22T04:19:09;1.20;;;0.63;;
78312;SDS011;67568;47.438;21.408;2023-12-22T04:21:37;1.40;;;0.90;;
78312;SDS011;67568;47.438;21.408;2023-12-22T04:24:05;3.55;;;1.50;;
78312;SDS011;67568;47.438;21.408;2023-12-22T04:26:32;2.25;;;1.00;;
78312;SDS011;67568;47.438;21.408;2023-12-22T04:28:59;2.15;;;1.10;;
78312;SDS011;67568;47.438;21.408;2023-12-22T04:31:25;2.50;;;1.13;;
78312;SDS011;67568;47.438;21.408;2023-12-22T04:33:52;3.05;;;1.55;;
78312;SDS011;67568;47.438;21.408;2023-12-22T04:36:20;1.75;;;0.60;;
78312;SDS011;67568;47.438;21.408;2023-12-22T04:38:49;1.15;;;0.70;;
78312;SDS011;67568;47.438;21.408;2023-12-22T04:41:19;1.55;;;1.23;;
78312;SDS011;67568;47.438;21.408;2023-12-22T04:43:48;2.35;;;1.13;;
78312;SDS011;67568;47.438;21.408;2023-12-22T04:46:15;1.45;;;0.75;;
78312;SDS011;67568;47.438;21.408;2023-12-22T04:48:42;1.73;;;1.10;;
78312;SDS011;67568;47.438;21.408;2023-12-22T04:51:10;2.08;;;0.70;;
78312;SDS011;67568;47.438;21.408;2023-12-22T04:53:37;2.00;;;1.13;;
78312;SDS011;67568;47.438;21.408;2023-12-22T04:56:04;0.90;;;0.70;;
78312;SDS011;67568;47.438;21.408;2023-12-22T04:58:31;1.50;;;0.98;;
78312;SDS011;67568;47.438;21.408;2023-12-22T05:00:58;2.15;;;1.15;;
78312;SDS011;67568;47.438;21.408;2023-12-22T05:03:25;0.75;;;0.43;;
78312;SDS011;67568;47.438;21.408;2023-12-22T05:05:51;3.03;;;0.88;;
78312;SDS011;67568;47.438;21.408;2023-12-22T05:08:18;0.68;;;0.40;;
78312;SDS011;67568;47.438;21.408;2023-12-22T05:10:45;0.90;;;0.60;;
78312;SDS011;67568;47.438;21.408;2023-12-22T05:13:14;1.60;;;0.93;;
78312;SDS011;67568;47.438;21.408;2023-12-22T05:15:41;0.77;;;0.50;;
78312;SDS011;67568;47.438;21.408;2023-12-22T05:18:08;1.05;;;0.68;;
78312;SDS011;67568;47.438;21.408;2023-12-22T05:20:35;0.80;;;0.40;;
78312;SDS011;67568;47.438;21.408;2023-12-22T05:23:02;0.80;;;0.40;;
78312;SDS011;67568;47.438;21.408;2023-12-22T05:25:29;1.83;;;0.75;;
78312;SDS011;67568;47.438;21.408;2023-12-22T05:27:56;1.23;;;0.75;;
78312;SDS011;67568;47.438;21.408;2023-12-22T05:30:23;1.60;;;0.98;;
78312;SDS011;67568;47.438;21.408;2023-12-22T05:32:50;1.70;;;0.85;;
78312;SDS011;67568;47.438;21.408;2023-12-22T05:35:17;2.33;;;0.60;;
78312;SDS011;67568;47.438;21.408;2023-12-22T05:37:44;2.55;;;1.10;;
78312;SDS011;67568;47.438;21.408;2023-12-22T05:40:10;0.52;;;0.30;;
78312;SDS011;67568;47.438;21.408;2023-12-22T05:42:37;1.38;;;0.80;;
78312;SDS011;67568;47.438;21.408;2023-12-22T05:45:04;1.38;;;0.73;;
78312;SDS011;67568;47.438;21.408;2023-12-22T05:47:32;1.35;;;0.70;;
78312;SDS011;67568;47.438;21.408;2023-12-22T05:49:59;1.10;;;0.52;;
78312;SDS011;67568;47.438;21.408;2023-12-22T05:52:26;1.35;;;0.60;;
78312;SDS011;67568;47.438;21.408;2023-12-22T05:54:53;6.60;;;0.98;;
78312;SDS011;67568;47.438;21.408;2023-12-22T05:57:20;1.25;;;0.47;;
78312;SDS011;67568;47.438;21.408;2023-12-22T05:59:47;0.65;;;0.40;;
78312;SDS011;67568;47.438;21.408;2023-12-22T06:02:13;0.60;;;0.30;;
78312;SDS011;67568;47.438;21.408;2023-12-22T06:04:40;1.15;;;0.68;;
78312;SDS011;67568;47.438;21.408;2023-12-22T06:07:07;1.83;;;0.68;;
78312;SDS011;67568;47.438;21.408;2023-12-22T06:09:35;0.90;;;0.52;;
78312;SDS011;67568;47.438;21.408;2023-12-22T06:12:04;2.55;;;0.77;;
78312;SDS011;67568;47.438;21.408;2023-12-22T06:14:37;0.50;;;0.30;;
78312;SDS011;67568;47.438;21.408;2023-12-22T06:17:10;0.50;;;0.30;;
78312;SDS011;67568;47.438;21.408;2023-12-22T06:19:37;2.53;;;0.68;;
78312;SDS011;67568;47.438;21.408;2023-12-22T06:22:04;0.47;;;0.30;;
78312;SDS011;67568;47.438;21.408;2023-12-22T06:24:31;1.10;;;0.40;;
78312;SDS011;67568;47.438;21.408;2023-12-22T06:26:58;1.30;;;0.50;;
78312;SDS011;67568;47.438;21.408;2023-12-22T06:29:24;0.90;;;0.50;;
78312;SDS011;67568;47.438;21.408;2023-12-22T06:31:54;0.88;;;0.52;;
78312;SDS011;67568;47.438;21.408;2023-12-22T06:34:21;1.05;;;0.47;;
78312;SDS011;67568;47.438;21.408;2023-12-22T06:36:48;1.13;;;0.63;;
78312;SDS011;67568;47.438;21.408;2023-12-22T06:39:14;1.23;;;0.63;;
78312;SDS011;67568;47.438;21.408;2023-12-22T06:41:41;1.30;;;0.40;;
78312;SDS011;67568;47.438;21.408;2023-12-22T06:44:08;0.60;;;0.30;;
78312;SDS011;67568;47.438;21.408;2023-12-22T06:46:35;0.57;;;0.38;;
78312;SDS011;67568;47.438;21.408;2023-12-22T06:49:02;0.70;;;0.40;;
78312;SDS011;67568;47.438;21.408;2023-12-22T06:51:32;1.25;;;0.50;;
78312;SDS011;67568;47.438;21.408;2023-12-22T06:53:58;0.88;;;0.50;;
78312;SDS011;67568;47.438;21.408;2023-12-22T06:56:30;0.70;;;0.40;;
78312;SDS011;67568;47.438;21.408;2023-12-22T06:59:02;1.02;;;0.50;;
78312;SDS011;67568;47.438;21.408;2023-12-22T07:01:32;2.60;;;0.55;;
78312;SDS011;67568;47.438;21.408;2023-12-22T07:04:01;0.70;;;0.43;;
78312;SDS011;67568;47.438;21.408;2023-12-22T07:06:30;2.90;;;1.15;;
78312;SDS011;67568;47.438;21.408;2023-12-22T07:11:50;1.10;;;0.40;;
78312;SDS011;67568;47.438;21.408;2023-12-22T07:14:18;1.35;;;0.68;;
78312;SDS011;67568;47.438;21.408;2023-12-22T07:16:48;0.60;;;0.30;;
78312;SDS011;67568;47.438;21.408;2023-12-22T07:19:20;0.90;;;0.40;;
78312;SDS011;67568;47.438;21.408;2023-12-22T07:21:47;1.42;;;0.70;;
78312;SDS011;67568;47.438;21.408;2023-12-22T07:24:17;0.50;;;0.30;;
78312;SDS011;67568;47.438;21.408;2023-12-22T07:26:44;1.02;;;0.60;;
78312;SDS011;67568;47.438;21.408;2023-12-22T07:29:11;1.05;;;0.60;;
78312;SDS011;67568;47.438;21.408;2023-12-22T07:31:41;0.70;;;0.47;;
78312;SDS011;67568;47.438;21.408;2023-12-22T07:34:09;0.90;;;0.45;;
78312;SDS011;67568;47.438;21.408;2023-12-22T07:36:35;1.45;;;0.57;;
78312;SDS011;67568;47.438;21.408;2023-12-22T07:39:13;1.23;;;0.60;;
78312;SDS011;67568;47.438;21.408;2023-12-22T07:41:43;1.75;;;0.80;;
78312;SDS011;67568;47.438;21.408;2023-12-22T07:44:10;2.90;;;0.93;;
78312;SDS011;67568;47.438;21.408;2023-12-22T07:46:36;1.38;;;0.75;;
78312;SDS011;67568;47.438;21.408;2023-12-22T07:49:03;1.15;;;0.63;;
78312;SDS011;67568;47.438;21.408;2023-12-22T07:51:30;1.52;;;0.90;;
78312;SDS011;67568;47.438;21.408;2023-12-22T07:53:59;2.85;;;0.90;;
78312;SDS011;67568;47.438;21.408;2023-12-22T07:56:29;1.63;;;0.67;;
78312;SDS011;67568;47.438;21.408;2023-12-22T07:58:55;2.83;;;0.73;;
78312;SDS011;67568;47.438;21.408;2023-12-22T08:01:44;1.38;;;0.60;;
78312;SDS011;67568;47.438;21.408;2023-12-22T08:04:11;1.38;;;0.55;;
78312;SDS011;67568;47.438;21.408;2023-12-22T08:06:39;1.23;;;0.63;;
78312;SDS011;67568;47.438;21.408;2023-12-22T08:09:06;6.40;;;0.83;;
78312;SDS011;67568;47.438;21.408;2023-12-22T08:11:33;0.60;;;0.40;;
78312;SDS011;67568;47.438;21.408;2023-12-22T08:14:03;1.92;;;0.60;;
78312;SDS011;67568;47.438;21.408;2023-12-22T08:16:29;3.35;;;0.95;;
78312;SDS011;67568;47.438;21.408;2023-12-22T08:18:56;1.45;;;0.55;;
78312;SDS011;67568;47.438;21.408;2023-12-22T08:21:23;2.50;;;0.67;;
78312;SDS011;67568;47.438;21.408;2023-12-22T08:24:04;1.90;;;0.73;;
78312;SDS011;67568;47.438;21.408;2023-12-22T08:26:34;1.83;;;0.70;;
78312;SDS011;67568;47.438;21.408;2023-12-22T08:29:00;2.25;;;0.47;;
78312;SDS011;67568;47.438;21.408;2023-12-22T08:31:27;2.03;;;0.70;;
78312;SDS011;67568;47.438;21.408;2023-12-22T08:33:54;3.67;;;1.00;;
78312;SDS011;67568;47.438;21.408;2023-12-22T08:36:21;2.20;;;0.60;;
78312;SDS011;67568;47.438;21.408;2023-12-22T08:38:48;5.53;;;0.90;;
78312;SDS011;67568;47.438;21.408;2023-12-22T08:41:16;3.00;;;1.05;;
78312;SDS011;67568;47.438;21.408;2023-12-22T08:43:46;2.05;;;0.60;;
78312;SDS011;67568;47.438;21.408;2023-12-22T08:46:12;2.13;;;0.67;;
78312;SDS011;67568;47.438;21.408;2023-12-22T08:48:39;2.25;;;0.90;;
78312;SDS011;67568;47.438;21.408;2023-12-22T08:51:06;6.18;;;0.82;;
78312;SDS011;67568;47.438;21.408;2023-12-22T08:53:34;3.65;;;0.55;;
78312;SDS011;67568;47.438;21.408;2023-12-22T08:56:01;1.00;;;0.50;;
78312;SDS011;67568;47.438;21.408;2023-12-22T08:58:29;4.33;;;0.60;;
78312;SDS011;67568;47.438;21.408;2023-12-22T09:00:56;2.15;;;0.68;;
78312;SDS011;67568;47.438;21.408;2023-12-22T09:03:23;1.45;;;0.65;;
78312;SDS011;67568;47.438;21.408;2023-12-22T09:05:53;2.30;;;0.70;;
78312;SDS011;67568;47.438;21.408;2023-12-22T09:08:19;5.55;;;1.33;;
78312;SDS011;67568;47.438;21.408;2023-12-22T09:10:52;2.63;;;0.70;;
78312;SDS011;67568;47.438;21.408;2023-12-22T09:13:19;2.35;;;1.25;;
78312;SDS011;67568;47.438;21.408;2023-12-22T09:15:46;1.42;;;0.95;;
78312;SDS011;67568;47.438;21.408;2023-12-22T09:18:13;2.25;;;0.60;;
78312;SDS011;67568;47.438;21.408;2023-12-22T09:20:42;1.85;;;0.75;;
78312;SDS011;67568;47.438;21.408;2023-12-22T09:23:09;0.70;;;0.40;;
78312;SDS011;67568;47.438;21.408;2023-12-22T09:25:39;2.90;;;0.70;;
78312;SDS011;67568;47.438;21.408;2023-12-22T09:28:06;1.25;;;0.50;;
78312;SDS011;67568;47.438;21.408;2023-12-22T09:30:32;3.53;;;1.00;;
78312;SDS011;67568;47.438;21.408;2023-12-22T09:32:59;4.25;;;1.02;;
78312;SDS011;67568;47.438;21.408;2023-12-22T09:35:26;2.43;;;0.80;;
78312;SDS011;67568;47.438;21.408;2023-12-22T09:37:53;3.13;;;0.60;;
78312;SDS011;67568;47.438;21.408;2023-12-22T09:40:20;1.50;;;0.60;;
78312;SDS011;67568;47.438;21.408;2023-12-22T09:42:47;1.55;;;0.70;;
78312;SDS011;67568;47.438;21.408;2023-12-22T09:45:33;3.45;;;0.70;;
78312;SDS011;67568;47.438;21.408;2023-12-22T09:48:00;2.60;;;0.77;;
78312;SDS011;67568;47.438;21.408;2023-12-22T09:50:28;5.03;;;0.75;;
78312;SDS011;67568;47.438;21.408;2023-12-22T09:52:56;1.73;;;0.70;;
78312;SDS011;67568;47.438;21.408;2023-12-22T09:55:23;1.70;;;0.70;;
78312;SDS011;67568;47.438;21.408;2023-12-22T09:57:56;5.72;;;0.90;;
78312;SDS011;67568;47.438;21.408;2023-12-22T10:00:24;1.93;;;0.90;;
78312;SDS011;67568;47.438;21.408;2023-12-22T10:02:55;3.25;;;1.17;;
78312;SDS011;67568;47.438;21.408;2023-12-22T10:05:24;2.45;;;0.77;;
78312;SDS011;67568;47.438;21.408;2023-12-22T10:07:51;4.82;;;0.80;;
78312;SDS011;67568;47.438;21.408;2023-12-22T10:10:20;4.75;;;1.05;;
78312;SDS011;67568;47.438;21.408;2023-12-22T10:12:48;1.20;;;0.50;;
78312;SDS011;67568;47.438;21.408;2023-12-22T10:15:19;1.80;;;0.80;;
78312;SDS011;67568;47.438;21.408;2023-12-22T10:17:48;0.90;;;0.50;;
78312;SDS011;67568;47.438;21.408;2023-12-22T10:20:19;1.90;;;1.00;;
78312;SDS011;67568;47.438;21.408;2023-12-22T10:22:46;1.13;;;0.68;;
78312;SDS011;67568;47.438;21.408;2023-12-22T10:25:19;1.10;;;0.50;;
78312;SDS011;67568;47.438;21.408;2023-12-22T10:27:47;2.70;;;0.98;;
78312;SDS011;67568;47.438;21.408;2023-12-22T10:30:14;3.50;;;0.68;;
78312;SDS011;67568;47.438;21.408;2023-12-22T10:32:41;2.58;;;0.65;;
78312;SDS011;67568;47.438;21.408;2023-12-22T10:35:11;1.45;;;0.52;;
78312;SDS011;67568;47.438;21.408;2023-12-22T10:37:38;3.50;;;1.53;;
78312;SDS011;67568;47.438;21.408;2023-12-22T10:40:05;5.28;;;0.80;;
78312;SDS011;67568;47.438;21.408;2023-12-22T10:42:34;4.40;;;0.73;;
78312;SDS011;67568;47.438;21.408;2023-12-22T10:45:04;2.03;;;0.80;;
78312;SDS011;67568;47.438;21.408;2023-12-22T10:47:32;2.17;;;0.90;;
78312;SDS011;67568;47.438;21.408;2023-12-22T10:50:04;2.47;;;0.90;;
78312;SDS011;67568;47.438;21.408;2023-12-22T10:52:33;1.80;;;0.63;;
78312;SDS011;67568;47.438;21.408;2023-12-22T10:55:00;3.13;;;1.30;;
78312;SDS011;67568;47.438;21.408;2023-12-22T10:57:27;4.50;;;1.10;;
78312;SDS011;67568;47.438;21.408;2023-12-22T10:59:56;4.10;;;1.17;;
78312;SDS011;67568;47.438;21.408;2023-12-22T11:02:27;3.70;;;1.53;;
78312;SDS011;67568;47.438;21.408;2023-12-22T11:05:03;5.80;;;2.20;;
78312;SDS011;67568;47.438;21.408;2023-12-22T11:07:34;9.13;;;2.03;;
78312;SDS011;67568;47.438;21.408;2023-12-22T11:10:04;4.43;;;1.35;;
78312;SDS011;67568;47.438;21.408;2023-12-22T11:12:37;2.78;;;1.10;;
78312;SDS011;67568;47.438;21.408;2023-12-22T11:15:08;2.70;;;1.30;;
78312;SDS011;67568;47.438;21.408;2023-12-22T11:17:39;1.35;;;0.57;;
78312;SDS011;67568;47.438;21.408;2023-12-22T11:20:12;2.38;;;0.65;;
78312;SDS011;67568;47.438;21.408;2023-12-22T11:22:51;2.75;;;0.52;;
78312;SDS011;67568;47.438;21.408;2023-12-22T11:25:19;2.28;;;0.70;;
78312;SDS011;67568;47.438;21.408;2023-12-22T11:27:48;2.13;;;0.70;;
78312;SDS011;67568;47.438;21.408;2023-12-22T11:30:21;1.58;;;0.77;;
78312;SDS011;67568;47.438;21.408;2023-12-22T11:32:49;1.27;;;0.50;;
78312;SDS011;67568;47.438;21.408;2023-12-22T11:35:21;1.60;;;0.50;;
78312;SDS011;67568;47.438;21.408;2023-12-22T11:37:58;0.85;;;0.40;;
78312;SDS011;67568;47.438;21.408;2023-12-22T11:40:27;6.40;;;0.97;;
78312;SDS011;67568;47.438;21.408;2023-12-22T11:42:55;1.45;;;0.50;;
78312;SDS011;67568;47.438;21.408;2023-12-22T11:45:23;2.35;;;0.70;;
78312;SDS011;67568;47.438;21.408;2023-12-22T11:47:56;2.40;;;0.80;;
78312;SDS011;67568;47.438;21.408;2023-12-22T11:50:31;4.72;;;1.00;;
78312;SDS011;67568;47.438;21.408;2023-12-22T11:53:17;3.87;;;1.03;;
78312;SDS011;67568;47.438;21.408;2023-12-22T11:58:46;3.20;;;0.93;;
78312;SDS011;67568;47.438;21.408;2023-12-22T12:01:14;2.70;;;0.90;;
78312;SDS011;67568;47.438;21.408;2023-12-22T12:03:47;1.77;;;0.63;;
78312;SDS011;67568;47.438;21.408;2023-12-22T12:06:16;1.10;;;0.50;;
78312;SDS011;67568;47.438;21.408;2023-12-22T12:08:47;2.70;;;0.90;;
78312;SDS011;67568;47.438;21.408;2023-12-22T12:11:14;3.10;;;1.00;;
78312;SDS011;67568;47.438;21.408;2023-12-22T12:13:42;5.65;;;0.80;;
78312;SDS011;67568;47.438;21.408;2023-12-22T12:16:10;1.33;;;0.65;;
78312;SDS011;67568;47.438;21.408;2023-12-22T12:18:39;5.23;;;0.60;;
78312;SDS011;67568;47.438;21.408;2023-12-22T12:21:08;2.85;;;0.70;;
78312;SDS011;67568;47.438;21.408;2023-12-22T12:23:36;5.20;;;1.00;;
78312;SDS011;67568;47.438;21.408;2023-12-22T12:26:07;2.38;;;0.80;;
78312;SDS011;67568;47.438;21.408;2023-12-22T12:28:35;1.20;;;0.70;;
78312;SDS011;67568;47.438;21.408;2023-12-22T12:31:04;1.47;;;0.53;;
78312;SDS011;67568;47.438;21.408;2023-12-22T12:33:32;0.75;;;0.40;;
78312;SDS011;67568;47.438;21.408;2023-12-22T12:36:00;6.78;;;0.70;;
78312;SDS011;67568;47.438;21.408;2023-12-22T12:42:04;0.90;;;0.50;;
78312;SDS011;67568;47.438;21.408;2023-12-22T12:44:15;1.30;;;0.40;;
78312;SDS011;67568;47.438;21.408;2023-12-22T12:46:43;1.67;;;0.93;;
78312;SDS011;67568;47.438;21.408;2023-12-22T12:49:11;2.95;;;0.77;;
78312;SDS011;67568;47.438;21.408;2023-12-22T12:51:40;1.95;;;0.85;;
78312;SDS011;67568;47.438;21.408;2023-12-22T12:54:11;1.02;;;0.50;;
78312;SDS011;67568;47.438;21.408;2023-12-22T12:56:42;3.40;;;0.80;;
78312;SDS011;67568;47.438;21.408;2023-12-22T12:59:10;0.60;;;0.40;;
78312;SDS011;67568;47.438;21.408;2023-12-22T13:01:42;0.95;;;0.40;;
78312;SDS011;67568;47.438;21.408;2023-12-22T13:04:11;2.25;;;0.60;;
78312;SDS011;67568;47.438;21.408;2023-12-22T13:06:47;1.30;;;0.50;;
78312;SDS011;67568;47.438;21.408;2023-12-22T13:09:15;1.10;;;0.60;;
78312;SDS011;67568;47.438;21.408;2023-12-22T13:11:43;1.83;;;0.90;;
78312;SDS011;67568;47.438;21.408;2023-12-22T13:14:12;3.72;;;0.65;;
78312;SDS011;67568;47.438;21.408;2023-12-22T13:16:48;16.85;;;0.70;;
78312;SDS011;67568;47.438;21.408;2023-12-22T13:19:18;1.23;;;0.50;;
78312;SDS011;67568;47.438;21.408;2023-12-22T13:21:48;1.20;;;0.60;;
78312;SDS011;67568;47.438;21.408;2023-12-22T13:24:15;3.10;;;1.23;;
78312;SDS011;67568;47.438;21.408;2023-12-22T13:26:43;1.33;;;0.75;;
78312;SDS011;67568;47.438;21.408;2023-12-22T13:29:11;0.70;;;0.40;;
78312;SDS011;67568;47.438;21.408;2023-12-22T13:31:42;0.70;;;0.40;;
78312;SDS011;67568;47.438;21.408;2023-12-22T13:34:10;0.60;;;0.30;;
78312;SDS011;67568;47.438;21.408;2023-12-22T13:36:37;0.90;;;0.50;;
78312;SDS011;67568;47.438;21.408;2023-12-22T13:39:05;0.70;;;0.40;;
78312;SDS011;67568;47.438;21.408;2023-12-22T13:41:42;1.35;;;0.55;;
78312;SDS011;67568;47.438;21.408;2023-12-22T13:44:09;0.75;;;0.40;;
78312;SDS011;67568;47.438;21.408;2023-12-22T13:46:36;0.65;;;0.40;;
78312;SDS011;67568;47.438;21.408;2023-12-22T13:49:03;1.10;;;0.50;;
78312;SDS011;67568;47.438;21.408;2023-12-22T13:51:40;0.65;;;0.32;;
78312;SDS011;67568;47.438;21.408;2023-12-22T13:54:07;0.60;;;0.38;;
78312;SDS011;67568;47.438;21.408;2023-12-22T13:56:34;1.27;;;0.68;;
78312;SDS011;67568;47.438;21.408;2023-12-22T13:59:01;0.70;;;0.40;;
78312;SDS011;67568;47.438;21.408;2023-12-22T14:01:29;0.63;;;0.40;;
78312;SDS011;67568;47.438;21.408;2023-12-22T14:03:56;1.48;;;0.47;;
78312;SDS011;67568;47.438;21.408;2023-12-22T14:06:24;1.17;;;0.50;;
78312;SDS011;67568;47.438;21.408;2023-12-22T14:08:57;1.33;;;0.60;;
78312;SDS011;67568;47.438;21.408;2023-12-22T14:11:26;0.70;;;0.40;;
78312;SDS011;67568;47.438;21.408;2023-12-22T14:13:56;1.10;;;0.60;;
78312;SDS011;67568;47.438;21.408;2023-12-22T14:16:23;0.75;;;0.35;;
78312;SDS011;67568;47.438;21.408;2023-12-22T14:18:53;2.00;;;0.63;;
78312;SDS011;67568;47.438;21.408;2023-12-22T14:21:20;2.20;;;0.95;;
78312;SDS011;67568;47.438;21.408;2023-12-22T14:23:49;7.60;;;1.52;;
78312;SDS011;67568;47.438;21.408;2023-12-22T14:26:16;2.58;;;1.00;;
78312;SDS011;67568;47.438;21.408;2023-12-22T14:28:44;0.50;;;0.30;;
78312;SDS011;67568;47.438;21.408;2023-12-22T14:31:12;1.17;;;0.40;;
78312;SDS011;67568;47.438;21.408;2023-12-22T14:33:39;0.75;;;0.43;;
78312;SDS011;67568;47.438;21.408;2023-12-22T14:36:09;1.20;;;0.68;;
78312;SDS011;67568;47.438;21.408;2023-12-22T14:38:36;1.02;;;0.52;;
78312;SDS011;67568;47.438;21.408;2023-12-22T14:41:03;1.75;;;0.65;;
78312;SDS011;67568;47.438;21.408;2023-12-22T14:43:30;1.60;;;0.98;;
78312;SDS011;67568;47.438;21.408;2023-12-22T14:46:00;2.30;;;0.73;;
78312;SDS011;67568;47.438;21.408;2023-12-22T14:48:27;2.45;;;0.88;;
78312;SDS011;67568;47.438;21.408;2023-12-22T14:50:54;2.35;;;0.95;;